sensor_id;sensor_type;location;lat;lon;timestamp;noise_LAeq;noise_LA_min;noise_LA_max;noise_LA01;noise_LA95
50132;Laerm;46340;53.148;8.204;2022-07-12T00:00:42;44.76;38.10;48.59;;
50132;Laerm;46340;53.148;8.204;2022-07-12T00:03:07;42.62;36.55;49.34;;
50132;Laerm;46340;53.148;8.204;2022-07-12T00:05:33;42.74;37.64;49.31;;
50132;Laerm;46340;53.148;8.204;2022-07-12T00:07:59;43.42;38.51;52.25;;
50132;Laerm;46340;53.148;8.204;2022-07-12T00:10:24;43.02;37.64;48.74;;
50132;Laerm;46340;53.148;8.204;2022-07-12T00:12:49;43.00;38.10;49.97;;
50132;Laerm;46340;53.148;8.204;2022-07-12T00:15:14;42.59;35.88;47.69;;
50132;Laerm;46340;53.148;8.204;2022-07-12T00:17:41;42.42;34.12;49.53;;
50132;Laerm;46340;53.148;8.204;2022-07-12T00:20:07;42.39;37.64;49.80;;
50132;Laerm;46340;53.148;8.204;2022-07-12T00:22:32;41.98;37.13;45.81;;
50132;Laerm;46340;53.148;8.204;2022-07-12T00:24:58;41.83;36.55;46.79;;
50132;Laerm;46340;53.148;8.204;2022-07-12T00:27:23;43.40;36.55;51.81;;
50132;Laerm;46340;53.148;8.204;2022-07-12T00:29:48;44.08;38.51;54.00;;
50132;Laerm;46340;53.148;8.204;2022-07-12T00:32:14;42.44;36.55;52.38;;
50132;Laerm;46340;53.148;8.204;2022-07-12T00:34:39;41.74;37.29;44.23;;
50132;Laerm;46340;53.148;8.204;2022-07-12T00:37:04;43.39;37.13;46.73;;
50132;Laerm;46340;53.148;8.204;2022-07-12T00:39:30;67.67;40.65;84.01;;
50132;Laerm;46340;53.148;8.204;2022-07-12T00:41:55;60.78;40.76;71.67;;
50132;Laerm;46340;53.148;8.204;2022-07-12T00:44:20;50.89;39.21;60.65;;
50132;Laerm;46340;53.148;8.204;2022-07-12T00:46:46;43.08;37.64;56.12;;
50132;Laerm;46340;53.148;8.204;2022-07-12T00:49:12;42.42;37.64;46.42;;
50132;Laerm;46340;53.148;8.204;2022-07-12T00:51:44;42.90;37.64;47.83;;
50132;Laerm;46340;53.148;8.204;2022-07-12T00:54:09;41.79;38.10;44.33;;
50132;Laerm;46340;53.148;8.204;2022-07-12T00:56:35;42.18;38.10;50.65;;
50132;Laerm;46340;53.148;8.204;2022-07-12T00:59:01;42.30;36.20;45.42;;
50132;Laerm;46340;53.148;8.204;2022-07-12T01:01:26;41.78;36.55;44.33;;
50132;Laerm;46340;53.148;8.204;2022-07-12T01:03:52;41.60;36.55;44.43;;
50132;Laerm;46340;53.148;8.204;2022-07-12T01:06:19;42.50;37.64;44.73;;
50132;Laerm;46340;53.148;8.204;2022-07-12T01:08:45;42.19;38.10;44.53;;
50132;Laerm;46340;53.148;8.204;2022-07-12T01:11:10;42.89;36.55;47.08;;
50132;Laerm;46340;53.148;8.204;2022-07-12T01:13:36;43.40;38.51;45.26;;
50132;Laerm;46340;53.148;8.204;2022-07-12T01:16:03;43.75;39.86;45.42;;
50132;Laerm;46340;53.148;8.204;2022-07-12T01:18:30;44.16;39.56;45.73;;
50132;Laerm;46340;53.148;8.204;2022-07-12T01:20:55;51.46;41.52;68.91;;
50132;Laerm;46340;53.148;8.204;2022-07-12T01:23:22;56.96;46.02;65.17;;
50132;Laerm;46340;53.148;8.204;2022-07-12T01:25:48;45.00;40.14;50.63;;
50132;Laerm;46340;53.148;8.204;2022-07-12T01:28:13;43.19;38.89;45.09;;
50132;Laerm;46340;53.148;8.204;2022-07-12T01:30:40;43.21;38.89;46.67;;
50132;Laerm;46340;53.148;8.204;2022-07-12T01:33:05;42.04;35.88;48.43;;
50132;Laerm;46340;53.148;8.204;2022-07-12T01:35:31;42.80;37.13;45.58;;
50132;Laerm;46340;53.148;8.204;2022-07-12T01:37:57;42.60;38.10;44.82;;
50132;Laerm;46340;53.148;8.204;2022-07-12T01:40:23;42.48;37.64;44.53;;
50132;Laerm;46340;53.148;8.204;2022-07-12T01:42:48;42.54;37.13;45.42;;
50132;Laerm;46340;53.148;8.204;2022-07-12T01:45:14;42.35;36.55;44.73;;
50132;Laerm;46340;53.148;8.204;2022-07-12T01:47:40;42.32;35.09;46.33;;
50132;Laerm;46340;53.148;8.204;2022-07-12T01:50:07;42.11;35.09;46.42;;
50132;Laerm;46340;53.148;8.204;2022-07-12T01:52:33;42.60;36.55;45.18;;
50132;Laerm;46340;53.148;8.204;2022-07-12T01:54:59;53.18;41.11;66.33;;
50132;Laerm;46340;53.148;8.204;2022-07-12T01:57:25;55.72;48.35;64.12;;
50132;Laerm;46340;53.148;8.204;2022-07-12T01:59:50;54.11;45.42;69.42;;
50132;Laerm;46340;53.148;8.204;2022-07-12T02:02:16;50.50;44.53;62.95;;
50132;Laerm;46340;53.148;8.204;2022-07-12T02:04:42;44.47;40.65;52.87;;
50132;Laerm;46340;53.148;8.204;2022-07-12T02:07:08;43.68;38.89;47.88;;
50132;Laerm;46340;53.148;8.204;2022-07-12T02:09:33;45.80;40.14;60.78;;
50132;Laerm;46340;53.148;8.204;2022-07-12T02:11:59;43.19;39.24;48.85;;
50132;Laerm;46340;53.148;8.204;2022-07-12T02:14:24;68.28;39.86;80.85;;
50132;Laerm;46340;53.148;8.204;2022-07-12T02:16:50;43.03;37.64;48.67;;
50132;Laerm;46340;53.148;8.204;2022-07-12T02:19:16;42.96;39.24;46.79;;
50132;Laerm;46340;53.148;8.204;2022-07-12T02:21:41;43.39;36.55;48.10;;
50132;Laerm;46340;53.148;8.204;2022-07-12T02:24:07;65.93;41.72;75.68;;
50132;Laerm;46340;53.148;8.204;2022-07-12T02:26:36;44.46;39.24;48.14;;
50132;Laerm;46340;53.148;8.204;2022-07-12T02:29:05;43.46;38.51;52.13;;
50132;Laerm;46340;53.148;8.204;2022-07-12T02:31:31;50.35;39.86;60.50;;
50132;Laerm;46340;53.148;8.204;2022-07-12T02:33:56;43.50;39.21;52.35;;
50132;Laerm;46340;53.148;8.204;2022-07-12T02:36:21;43.74;38.89;54.22;;
50132;Laerm;46340;53.148;8.204;2022-07-12T02:38:47;43.10;37.64;51.11;;
50132;Laerm;46340;53.148;8.204;2022-07-12T02:41:13;42.88;37.64;58.01;;
50132;Laerm;46340;53.148;8.204;2022-07-12T02:43:38;43.05;37.13;68.30;;
50132;Laerm;46340;53.148;8.204;2022-07-12T02:46:05;42.98;38.10;59.15;;
50132;Laerm;46340;53.148;8.204;2022-07-12T02:48:31;43.02;37.64;59.62;;
50132;Laerm;46340;53.148;8.204;2022-07-12T02:50:56;43.26;38.51;62.75;;
50132;Laerm;46340;53.148;8.204;2022-07-12T02:53:22;43.27;38.51;52.43;;
50132;Laerm;46340;53.148;8.204;2022-07-12T02:55:48;43.38;39.56;55.50;;
50132;Laerm;46340;53.148;8.204;2022-07-12T02:58:14;43.00;38.89;48.82;;
50132;Laerm;46340;53.148;8.204;2022-07-12T03:00:39;44.69;39.24;50.68;;
50132;Laerm;46340;53.148;8.204;2022-07-12T03:03:05;43.03;39.56;47.44;;
50132;Laerm;46340;53.148;8.204;2022-07-12T03:05:33;43.26;38.51;51.58;;
50132;Laerm;46340;53.148;8.204;2022-07-12T03:07:58;43.36;38.89;49.53;;
50132;Laerm;46340;53.148;8.204;2022-07-12T03:10:24;43.28;38.89;49.40;;
50132;Laerm;46340;53.148;8.204;2022-07-12T03:12:49;43.39;38.10;60.34;;
50132;Laerm;46340;53.148;8.204;2022-07-12T03:15:14;43.63;38.89;53.24;;
50132;Laerm;46340;53.148;8.204;2022-07-12T03:17:39;43.48;38.10;52.15;;
50132;Laerm;46340;53.148;8.204;2022-07-12T03:20:05;43.11;38.89;48.71;;
50132;Laerm;46340;53.148;8.204;2022-07-12T03:22:32;46.64;38.10;66.79;;
50132;Laerm;46340;53.148;8.204;2022-07-12T03:24:58;59.35;38.89;75.43;;
50132;Laerm;46340;53.148;8.204;2022-07-12T03:27:23;47.54;39.56;60.37;;
50132;Laerm;46340;53.148;8.204;2022-07-12T03:29:48;51.40;40.14;66.94;;
50132;Laerm;46340;53.148;8.204;2022-07-12T03:32:13;43.83;39.86;49.97;;
50132;Laerm;46340;53.148;8.204;2022-07-12T03:34:39;44.33;39.56;54.51;;
50132;Laerm;46340;53.148;8.204;2022-07-12T03:37:04;44.20;40.06;48.96;;
50132;Laerm;46340;53.148;8.204;2022-07-12T03:39:30;55.45;39.56;73.25;;
50132;Laerm;46340;53.148;8.204;2022-07-12T03:41:55;44.26;39.51;49.37;;
50132;Laerm;46340;53.148;8.204;2022-07-12T03:44:20;43.98;40.14;51.82;;
50132;Laerm;46340;53.148;8.204;2022-07-12T03:46:46;44.99;38.89;55.88;;
50132;Laerm;46340;53.148;8.204;2022-07-12T03:49:12;45.16;39.86;57.12;;
50132;Laerm;46340;53.148;8.204;2022-07-12T03:51:37;45.05;39.56;59.77;;
50132;Laerm;46340;53.148;8.204;2022-07-12T03:54:02;43.68;39.56;55.64;;
50132;Laerm;46340;53.148;8.204;2022-07-12T03:56:30;44.30;38.89;57.93;;
50132;Laerm;46340;53.148;8.204;2022-07-12T03:59:14;43.79;38.51;54.59;;
50132;Laerm;46340;53.148;8.204;2022-07-12T04:01:39;43.42;39.24;50.55;;
50132;Laerm;46340;53.148;8.204;2022-07-12T04:04:04;46.29;40.65;59.79;;
50132;Laerm;46340;53.148;8.204;2022-07-12T04:06:30;45.40;43.66;50.00;;
50132;Laerm;46340;53.148;8.204;2022-07-12T04:08:55;44.09;39.24;49.68;;
50132;Laerm;46340;53.148;8.204;2022-07-12T04:11:20;44.32;38.51;57.04;;
50132;Laerm;46340;53.148;8.204;2022-07-12T04:13:46;43.55;39.86;46.85;;
50132;Laerm;46340;53.148;8.204;2022-07-12T04:16:11;44.85;39.86;60.39;;
50132;Laerm;46340;53.148;8.204;2022-07-12T04:18:37;44.63;41.11;61.53;;
50132;Laerm;46340;53.148;8.204;2022-07-12T04:21:03;61.10;40.89;80.27;;
50132;Laerm;46340;53.148;8.204;2022-07-12T04:23:28;45.02;40.65;54.73;;
50132;Laerm;46340;53.148;8.204;2022-07-12T04:25:53;43.78;39.56;52.10;;
50132;Laerm;46340;53.148;8.204;2022-07-12T04:28:19;45.04;40.40;57.66;;
50132;Laerm;46340;53.148;8.204;2022-07-12T04:30:44;45.12;40.89;54.58;;
50132;Laerm;46340;53.148;8.204;2022-07-12T04:33:11;46.09;39.56;59.95;;
50132;Laerm;46340;53.148;8.204;2022-07-12T04:35:37;46.04;39.86;57.41;;
50132;Laerm;46340;53.148;8.204;2022-07-12T04:38:03;47.76;40.89;66.64;;
50132;Laerm;46340;53.148;8.204;2022-07-12T04:40:28;54.26;41.32;69.90;;
50132;Laerm;46340;53.148;8.204;2022-07-12T04:42:54;44.52;41.11;55.82;;
50132;Laerm;46340;53.148;8.204;2022-07-12T04:45:19;44.83;41.52;52.35;;
50132;Laerm;46340;53.148;8.204;2022-07-12T04:47:44;47.17;40.89;65.20;;
50132;Laerm;46340;53.148;8.204;2022-07-12T04:50:10;60.99;40.89;78.30;;
50132;Laerm;46340;53.148;8.204;2022-07-12T04:52:35;45.68;40.65;62.62;;
50132;Laerm;46340;53.148;8.204;2022-07-12T04:55:00;47.44;41.52;55.92;;
50132;Laerm;46340;53.148;8.204;2022-07-12T04:57:26;47.16;40.89;60.84;;
50132;Laerm;46340;53.148;8.204;2022-07-12T04:59:52;46.00;40.14;58.99;;
50132;Laerm;46340;53.148;8.204;2022-07-12T05:02:17;45.07;40.40;61.62;;
50132;Laerm;46340;53.148;8.204;2022-07-12T05:04:42;43.99;40.14;49.34;;
50132;Laerm;46340;53.148;8.204;2022-07-12T05:07:08;44.07;40.40;49.77;;
50132;Laerm;46340;53.148;8.204;2022-07-12T05:09:34;44.11;40.30;53.67;;
50132;Laerm;46340;53.148;8.204;2022-07-12T05:11:59;44.79;40.89;47.78;;
50132;Laerm;46340;53.148;8.204;2022-07-12T05:14:24;44.18;40.40;64.14;;
50132;Laerm;46340;53.148;8.204;2022-07-12T05:16:49;47.03;40.40;64.23;;
50132;Laerm;46340;53.148;8.204;2022-07-12T05:19:15;50.40;42.87;71.85;;
50132;Laerm;46340;53.148;8.204;2022-07-12T05:21:41;58.37;41.72;72.74;;
50132;Laerm;46340;53.148;8.204;2022-07-12T05:24:07;44.17;39.24;52.28;;
50132;Laerm;46340;53.148;8.204;2022-07-12T05:26:33;50.29;40.89;68.00;;
50132;Laerm;46340;53.148;8.204;2022-07-12T05:28:58;51.16;41.90;69.73;;
50132;Laerm;46340;53.148;8.204;2022-07-12T05:31:23;53.01;46.61;68.40;;
50132;Laerm;46340;53.148;8.204;2022-07-12T05:33:49;59.70;46.23;76.22;;
50132;Laerm;46340;53.148;8.204;2022-07-12T05:36:14;57.26;46.02;76.61;;
50132;Laerm;46340;53.148;8.204;2022-07-12T05:38:40;53.67;45.73;72.99;;
50132;Laerm;46340;53.148;8.204;2022-07-12T05:41:05;58.94;45.00;73.67;;
50132;Laerm;46340;53.148;8.204;2022-07-12T05:43:30;54.31;45.81;71.67;;
50132;Laerm;46340;53.148;8.204;2022-07-12T05:45:56;56.09;46.02;77.16;;
50132;Laerm;46340;53.148;8.204;2022-07-12T05:48:21;57.52;46.09;72.00;;
50132;Laerm;46340;53.148;8.204;2022-07-12T05:50:46;61.22;46.02;73.91;;
50132;Laerm;46340;53.148;8.204;2022-07-12T05:53:12;59.75;46.42;72.99;;
50132;Laerm;46340;53.148;8.204;2022-07-12T05:55:50;61.09;47.92;67.72;;
50132;Laerm;46340;53.148;8.204;2022-07-12T05:58:16;60.29;46.42;67.22;;
50132;Laerm;46340;53.148;8.204;2022-07-12T06:00:41;58.31;46.79;68.00;;
50132;Laerm;46340;53.148;8.204;2022-07-12T06:03:08;56.29;47.02;80.61;;
50132;Laerm;46340;53.148;8.204;2022-07-12T06:05:33;63.26;50.27;81.89;;
50132;Laerm;46340;53.148;8.204;2022-07-12T06:07:58;61.19;51.81;70.67;;
50132;Laerm;46340;53.148;8.204;2022-07-12T06:10:24;59.58;53.32;67.99;;
50132;Laerm;46340;53.148;8.204;2022-07-12T06:12:49;63.52;51.66;85.75;;
50132;Laerm;46340;53.148;8.204;2022-07-12T06:15:14;59.97;47.59;82.30;;
50132;Laerm;46340;53.148;8.204;2022-07-12T06:17:40;55.27;46.55;74.05;;
50132;Laerm;46340;53.148;8.204;2022-07-12T06:20:05;56.93;46.23;67.75;;
50132;Laerm;46340;53.148;8.204;2022-07-12T06:22:31;60.05;56.84;65.48;;
50132;Laerm;46340;53.148;8.204;2022-07-12T06:24:56;60.04;46.55;71.13;;
50132;Laerm;46340;53.148;8.204;2022-07-12T06:27:22;66.19;48.59;84.90;;
50132;Laerm;46340;53.148;8.204;2022-07-12T06:29:47;53.62;46.36;67.42;;
50132;Laerm;46340;53.148;8.204;2022-07-12T06:32:16;62.69;56.84;69.33;;
50132;Laerm;46340;53.148;8.204;2022-07-12T06:34:41;61.10;52.43;83.66;;
50132;Laerm;46340;53.148;8.204;2022-07-12T06:37:06;61.77;46.09;86.78;;
50132;Laerm;46340;53.148;8.204;2022-07-12T06:39:34;51.35;45.50;73.61;;
50132;Laerm;46340;53.148;8.204;2022-07-12T06:41:59;60.56;46.29;76.33;;
50132;Laerm;46340;53.148;8.204;2022-07-12T06:44:24;57.38;45.88;64.44;;
50132;Laerm;46340;53.148;8.204;2022-07-12T06:46:50;60.67;56.86;69.57;;
50132;Laerm;46340;53.148;8.204;2022-07-12T06:49:15;62.77;54.13;70.37;;
50132;Laerm;46340;53.148;8.204;2022-07-12T06:51:40;64.18;54.57;83.44;;
50132;Laerm;46340;53.148;8.204;2022-07-12T06:54:05;62.27;52.76;81.05;;
50132;Laerm;46340;53.148;8.204;2022-07-12T06:56:31;60.89;49.56;71.87;;
50132;Laerm;46340;53.148;8.204;2022-07-12T06:58:56;59.79;51.48;69.22;;
50132;Laerm;46340;53.148;8.204;2022-07-12T07:01:22;60.41;46.42;79.98;;
50132;Laerm;46340;53.148;8.204;2022-07-12T07:03:47;56.93;46.39;77.25;;
50132;Laerm;46340;53.148;8.204;2022-07-12T07:06:12;56.91;46.55;67.84;;
50132;Laerm;46340;53.148;8.204;2022-07-12T07:08:38;60.02;46.61;79.75;;
50132;Laerm;46340;53.148;8.204;2022-07-12T07:11:03;60.14;50.63;78.49;;
50132;Laerm;46340;53.148;8.204;2022-07-12T07:13:29;61.31;46.67;77.64;;
50132;Laerm;46340;53.148;8.204;2022-07-12T07:15:54;52.28;46.91;70.93;;
50132;Laerm;46340;53.148;8.204;2022-07-12T07:18:20;57.50;47.78;65.12;;
50132;Laerm;46340;53.148;8.204;2022-07-12T07:20:45;54.34;45.81;73.28;;
50132;Laerm;46340;53.148;8.204;2022-07-12T07:23:10;59.81;46.79;73.55;;
50132;Laerm;46340;53.148;8.204;2022-07-12T07:25:39;54.20;46.29;76.21;;
50132;Laerm;46340;53.148;8.204;2022-07-12T07:28:04;60.61;47.54;88.99;;
50132;Laerm;46340;53.148;8.204;2022-07-12T07:30:30;55.18;47.18;73.83;;
50132;Laerm;46340;53.148;8.204;2022-07-12T07:33:14;50.98;45.88;72.46;;
50132;Laerm;46340;53.148;8.204;2022-07-12T07:35:39;48.53;46.14;51.70;;
50132;Laerm;46340;53.148;8.204;2022-07-12T07:38:05;52.61;46.23;72.94;;
50132;Laerm;46340;53.148;8.204;2022-07-12T07:40:30;59.51;47.64;78.46;;
50132;Laerm;46340;53.148;8.204;2022-07-12T07:42:55;52.73;48.78;62.89;;
50132;Laerm;46340;53.148;8.204;2022-07-12T07:45:20;52.70;49.10;61.26;;
50132;Laerm;46340;53.148;8.204;2022-07-12T07:47:47;53.19;49.37;69.22;;
50132;Laerm;46340;53.148;8.204;2022-07-12T07:50:13;54.80;49.03;68.65;;
50132;Laerm;46340;53.148;8.204;2022-07-12T07:52:38;50.60;45.88;70.39;;
50132;Laerm;46340;53.148;8.204;2022-07-12T07:55:04;49.25;45.81;68.30;;
50132;Laerm;46340;53.148;8.204;2022-07-12T07:57:30;48.85;45.66;59.76;;
50132;Laerm;46340;53.148;8.204;2022-07-12T07:59:55;48.41;45.73;56.13;;
50132;Laerm;46340;53.148;8.204;2022-07-12T08:02:20;48.74;45.42;62.89;;
50132;Laerm;46340;53.148;8.204;2022-07-12T08:04:45;49.71;45.81;64.20;;
50132;Laerm;46340;53.148;8.204;2022-07-12T08:07:11;54.45;45.50;73.00;;
50132;Laerm;46340;53.148;8.204;2022-07-12T08:09:36;61.17;46.36;81.05;;
50132;Laerm;46340;53.148;8.204;2022-07-12T08:12:01;50.92;46.29;68.89;;
50132;Laerm;46340;53.148;8.204;2022-07-12T08:14:26;55.57;46.55;74.99;;
50132;Laerm;46340;53.148;8.204;2022-07-12T08:16:52;62.33;47.29;75.75;;
50132;Laerm;46340;53.148;8.204;2022-07-12T08:19:17;65.01;47.10;75.73;;
50132;Laerm;46340;53.148;8.204;2022-07-12T08:21:43;67.00;49.37;80.78;;
50132;Laerm;46340;53.148;8.204;2022-07-12T08:24:08;57.19;46.96;80.74;;
50132;Laerm;46340;53.148;8.204;2022-07-12T08:26:34;66.76;47.29;86.17;;
50132;Laerm;46340;53.148;8.204;2022-07-12T08:28:59;75.94;46.09;83.52;;
50132;Laerm;46340;53.148;8.204;2022-07-12T08:31:24;56.14;46.79;77.40;;
50132;Laerm;46340;53.148;8.204;2022-07-12T08:33:51;57.20;49.68;76.43;;
50132;Laerm;46340;53.148;8.204;2022-07-12T08:36:16;55.26;46.91;74.98;;
50132;Laerm;46340;53.148;8.204;2022-07-12T08:38:41;69.95;46.49;78.18;;
50132;Laerm;46340;53.148;8.204;2022-07-12T08:41:11;72.15;58.05;93.20;;
50132;Laerm;46340;53.148;8.204;2022-07-12T08:43:37;72.01;66.43;85.37;;
50132;Laerm;46340;53.148;8.204;2022-07-12T08:46:07;70.93;66.40;75.91;;
50132;Laerm;46340;53.148;8.204;2022-07-12T08:48:34;69.48;62.06;87.78;;
50132;Laerm;46340;53.148;8.204;2022-07-12T08:51:04;68.04;63.11;76.96;;
50132;Laerm;46340;53.148;8.204;2022-07-12T08:53:30;67.92;64.28;78.09;;
50132;Laerm;46340;53.148;8.204;2022-07-12T08:55:56;65.76;59.35;81.85;;
50132;Laerm;46340;53.148;8.204;2022-07-12T08:58:22;65.64;60.16;68.91;;
50132;Laerm;46340;53.148;8.204;2022-07-12T09:00:47;66.42;61.10;82.66;;
50132;Laerm;46340;53.148;8.204;2022-07-12T09:03:13;62.06;55.84;75.86;;
50132;Laerm;46340;53.148;8.204;2022-07-12T09:05:47;63.50;52.22;79.59;;
50132;Laerm;46340;53.148;8.204;2022-07-12T09:08:13;61.71;49.21;78.70;;
50132;Laerm;46340;53.148;8.204;2022-07-12T09:11:01;67.48;52.54;82.04;;
50132;Laerm;46340;53.148;8.204;2022-07-12T09:16:13;64.44;51.88;82.00;;
50132;Laerm;46340;53.148;8.204;2022-07-12T09:18:39;68.01;53.01;84.16;;
50132;Laerm;46340;53.148;8.204;2022-07-12T09:21:04;64.02;51.26;82.19;;
50132;Laerm;46340;53.148;8.204;2022-07-12T09:23:30;55.83;50.14;65.05;;
50132;Laerm;46340;53.148;8.204;2022-07-12T09:25:55;61.85;49.68;75.37;;
50132;Laerm;46340;53.148;8.204;2022-07-12T09:28:21;60.82;49.59;77.36;;
50132;Laerm;46340;53.148;8.204;2022-07-12T09:30:52;61.61;49.68;69.35;;
50132;Laerm;46340;53.148;8.204;2022-07-12T09:33:19;62.19;52.11;70.51;;
50132;Laerm;46340;53.148;8.204;2022-07-12T09:36:04;68.06;50.27;81.03;;
50132;Laerm;46340;53.148;8.204;2022-07-12T09:38:40;69.27;63.16;78.83;;
50132;Laerm;46340;53.148;8.204;2022-07-12T09:41:16;67.23;59.95;81.49;;
50132;Laerm;46340;53.148;8.204;2022-07-12T09:43:42;64.63;57.64;70.43;;
50132;Laerm;46340;53.148;8.204;2022-07-12T09:46:09;66.97;59.88;83.13;;
50132;Laerm;46340;53.148;8.204;2022-07-12T09:48:36;69.86;63.58;78.44;;
50132;Laerm;46340;53.148;8.204;2022-07-12T09:51:02;67.83;63.74;75.16;;
50132;Laerm;46340;53.148;8.204;2022-07-12T09:53:30;64.60;54.45;71.61;;
50132;Laerm;46340;53.148;8.204;2022-07-12T09:56:03;72.38;55.74;90.61;;
50132;Laerm;46340;53.148;8.204;2022-07-12T09:58:38;64.38;55.33;76.74;;
50132;Laerm;46340;53.148;8.204;2022-07-12T10:01:06;67.55;62.48;72.81;;
50132;Laerm;46340;53.148;8.204;2022-07-12T10:03:32;68.35;58.10;72.58;;
50132;Laerm;46340;53.148;8.204;2022-07-12T10:06:01;65.97;48.06;82.12;;
50132;Laerm;46340;53.148;8.204;2022-07-12T10:08:27;62.05;47.34;80.87;;
50132;Laerm;46340;53.148;8.204;2022-07-12T10:10:53;67.54;63.01;82.14;;
50132;Laerm;46340;53.148;8.204;2022-07-12T10:13:19;65.34;57.60;70.85;;
50132;Laerm;46340;53.148;8.204;2022-07-12T10:15:47;64.20;54.04;73.17;;
50132;Laerm;46340;53.148;8.204;2022-07-12T10:18:20;60.16;50.98;76.09;;
50132;Laerm;46340;53.148;8.204;2022-07-12T10:20:49;58.94;52.62;70.31;;
50132;Laerm;46340;53.148;8.204;2022-07-12T10:23:28;64.92;53.07;83.60;;
50132;Laerm;46340;53.148;8.204;2022-07-12T10:25:55;57.03;51.90;71.41;;
50132;Laerm;46340;53.148;8.204;2022-07-12T10:28:20;57.38;52.72;75.13;;
50132;Laerm;46340;53.148;8.204;2022-07-12T10:30:47;58.40;48.31;87.75;;
50132;Laerm;46340;53.148;8.204;2022-07-12T10:33:23;55.82;48.51;76.02;;
50132;Laerm;46340;53.148;8.204;2022-07-12T10:35:59;59.49;48.51;73.44;;
50132;Laerm;46340;53.148;8.204;2022-07-12T10:38:26;55.36;47.44;65.36;;
50132;Laerm;46340;53.148;8.204;2022-07-12T10:40:52;61.78;48.59;78.55;;
50132;Laerm;46340;53.148;8.204;2022-07-12T10:43:19;57.11;49.07;77.68;;
50132;Laerm;46340;53.148;8.204;2022-07-12T10:45:47;58.04;48.78;73.76;;
50132;Laerm;46340;53.148;8.204;2022-07-12T10:58:48;56.59;47.34;66.09;;
50132;Laerm;46340;53.148;8.204;2022-07-12T11:01:22;55.10;47.74;72.37;;
50132;Laerm;46340;53.148;8.204;2022-07-12T11:03:49;56.55;47.83;80.03;;
50132;Laerm;46340;53.148;8.204;2022-07-12T11:06:20;56.20;47.39;71.83;;
50132;Laerm;46340;53.148;8.204;2022-07-12T11:09:09;56.07;48.78;66.40;;
50132;Laerm;46340;53.148;8.204;2022-07-12T11:11:44;65.27;47.88;76.83;;
50132;Laerm;46340;53.148;8.204;2022-07-12T11:14:10;67.91;50.06;74.60;;
50132;Laerm;46340;53.148;8.204;2022-07-12T11:16:44;60.77;48.51;75.92;;
50132;Laerm;46340;53.148;8.204;2022-07-12T11:19:09;68.06;48.27;79.49;;
50132;Laerm;46340;53.148;8.204;2022-07-12T11:21:35;72.83;47.64;84.27;;
50132;Laerm;46340;53.148;8.204;2022-07-12T11:24:01;74.44;60.23;85.19;;
50132;Laerm;46340;53.148;8.204;2022-07-12T11:26:27;71.69;60.23;82.29;;
50132;Laerm;46340;53.148;8.204;2022-07-12T11:28:57;70.19;61.69;76.78;;
50132;Laerm;46340;53.148;8.204;2022-07-12T11:31:22;68.88;59.86;75.55;;
50132;Laerm;46340;53.148;8.204;2022-07-12T11:33:50;67.88;61.60;72.70;;
50132;Laerm;46340;53.148;8.204;2022-07-12T11:36:18;65.65;50.25;72.43;;
50132;Laerm;46340;53.148;8.204;2022-07-12T11:38:45;64.30;59.88;68.99;;
50132;Laerm;46340;53.148;8.204;2022-07-12T11:41:13;65.51;55.67;78.52;;
50132;Laerm;46340;53.148;8.204;2022-07-12T11:43:39;61.18;57.11;70.71;;
50132;Laerm;46340;53.148;8.204;2022-07-12T11:46:06;59.58;50.82;78.87;;
50132;Laerm;46340;53.148;8.204;2022-07-12T11:48:32;60.44;52.08;77.80;;
50132;Laerm;46340;53.148;8.204;2022-07-12T11:51:04;68.33;52.45;89.01;;
50132;Laerm;46340;53.148;8.204;2022-07-12T11:53:31;61.31;58.19;68.70;;
50132;Laerm;46340;53.148;8.204;2022-07-12T11:55:58;60.82;56.90;68.02;;
50132;Laerm;46340;53.148;8.204;2022-07-12T11:58:24;60.74;49.03;78.82;;
50132;Laerm;46340;53.148;8.204;2022-07-12T12:00:51;59.81;47.39;85.40;;
50132;Laerm;46340;53.148;8.204;2022-07-12T12:03:18;60.76;55.28;73.52;;
50132;Laerm;46340;53.148;8.204;2022-07-12T12:05:46;60.06;56.78;67.19;;
50132;Laerm;46340;53.148;8.204;2022-07-12T12:08:12;60.82;57.63;65.88;;
50132;Laerm;46340;53.148;8.204;2022-07-12T12:10:39;60.40;48.35;67.92;;
50132;Laerm;46340;53.148;8.204;2022-07-12T12:13:13;57.69;46.29;85.99;;
50132;Laerm;46340;53.148;8.204;2022-07-12T12:15:38;51.55;46.23;74.73;;
50132;Laerm;46340;53.148;8.204;2022-07-12T12:18:05;56.58;47.24;75.09;;
50132;Laerm;46340;53.148;8.204;2022-07-12T12:22:58;49.79;46.23;60.75;;
50132;Laerm;46340;53.148;8.204;2022-07-12T12:25:24;59.82;51.40;73.97;;
50132;Laerm;46340;53.148;8.204;2022-07-12T12:30:19;58.25;47.24;76.38;;
50132;Laerm;46340;53.148;8.204;2022-07-12T12:32:51;61.76;46.96;87.37;;
50132;Laerm;46340;53.148;8.204;2022-07-12T12:35:19;70.27;47.78;94.29;;
50132;Laerm;46340;53.148;8.204;2022-07-12T12:37:53;66.73;47.39;88.97;;
50132;Laerm;46340;53.148;8.204;2022-07-12T12:40:26;74.09;47.74;82.74;;
50132;Laerm;46340;53.148;8.204;2022-07-12T12:42:52;77.24;61.84;83.57;;
50132;Laerm;46340;53.148;8.204;2022-07-12T12:45:22;71.95;61.23;76.74;;
50132;Laerm;46340;53.148;8.204;2022-07-12T12:47:59;69.76;60.94;77.58;;
50132;Laerm;46340;53.148;8.204;2022-07-12T12:53:09;62.20;48.63;69.18;;
50132;Laerm;46340;53.148;8.204;2022-07-12T12:55:35;64.34;47.92;83.71;;
50132;Laerm;46340;53.148;8.204;2022-07-12T12:58:00;68.30;52.10;77.91;;
50132;Laerm;46340;53.148;8.204;2022-07-12T13:00:27;65.26;59.50;81.74;;
50132;Laerm;46340;53.148;8.204;2022-07-12T13:02:52;70.35;59.41;80.03;;
50132;Laerm;46340;53.148;8.204;2022-07-12T13:05:17;63.60;56.57;69.64;;
50132;Laerm;46340;53.148;8.204;2022-07-12T13:07:43;63.41;57.14;71.37;;
50132;Laerm;46340;53.148;8.204;2022-07-12T13:10:08;71.46;64.19;83.52;;
50132;Laerm;46340;53.148;8.204;2022-07-12T13:12:34;67.58;51.17;85.05;;
50132;Laerm;46340;53.148;8.204;2022-07-12T13:14:59;69.04;51.46;86.42;;
50132;Laerm;46340;53.148;8.204;2022-07-12T13:17:24;69.15;50.96;78.70;;
50132;Laerm;46340;53.148;8.204;2022-07-12T13:19:49;66.51;51.22;78.26;;
50132;Laerm;46340;53.148;8.204;2022-07-12T13:22:15;67.51;48.14;80.04;;
50132;Laerm;46340;53.148;8.204;2022-07-12T13:24:41;77.48;48.63;85.47;;
50132;Laerm;46340;53.148;8.204;2022-07-12T13:27:06;73.00;65.73;79.64;;
50132;Laerm;46340;53.148;8.204;2022-07-12T13:29:31;70.94;57.63;83.31;;
50132;Laerm;46340;53.148;8.204;2022-07-12T13:31:57;64.83;59.77;69.24;;
50132;Laerm;46340;53.148;8.204;2022-07-12T13:34:22;63.86;59.94;69.14;;
50132;Laerm;46340;53.148;8.204;2022-07-12T13:36:48;64.25;59.38;71.14;;
50132;Laerm;46340;53.148;8.204;2022-07-12T13:39:13;62.89;58.85;76.59;;
50132;Laerm;46340;53.148;8.204;2022-07-12T13:41:56;64.34;57.22;78.57;;
50132;Laerm;46340;53.148;8.204;2022-07-12T13:44:22;64.93;58.58;76.16;;
50132;Laerm;46340;53.148;8.204;2022-07-12T13:46:47;62.50;47.83;89.57;;
50132;Laerm;46340;53.148;8.204;2022-07-12T13:49:13;71.97;47.83;82.34;;
50132;Laerm;46340;53.148;8.204;2022-07-12T13:51:38;68.00;61.62;73.77;;
50132;Laerm;46340;53.148;8.204;2022-07-12T13:54:03;65.75;60.76;80.28;;
50132;Laerm;46340;53.148;8.204;2022-07-12T13:56:29;64.33;58.15;72.26;;
50132;Laerm;46340;53.148;8.204;2022-07-12T13:58:54;63.83;58.96;76.38;;
50132;Laerm;46340;53.148;8.204;2022-07-12T14:01:19;64.09;57.86;74.37;;